sensor_id;sensor_type;location;lat;lon;timestamp;P1;durP1;ratioP1;P2;durP2;ratioP2
11386;SDS011;5748;53.102;8.456;2022-11-15T00:00:49;5.27;;;4.77;;
11386;SDS011;5748;53.102;8.456;2022-11-15T00:03:18;5.50;;;5.00;;
11386;SDS011;5748;53.102;8.456;2022-11-15T00:05:46;5.20;;;4.70;;
11386;SDS011;5748;53.102;8.456;2022-11-15T00:08:14;5.17;;;4.67;;
11386;SDS011;5748;53.102;8.456;2022-11-15T00:10:53;5.17;;;4.60;;
11386;SDS011;5748;53.102;8.456;2022-11-15T00:13:21;5.10;;;4.60;;
11386;SDS011;5748;53.102;8.456;2022-11-15T00:15:50;4.63;;;4.23;;
11386;SDS011;5748;53.102;8.456;2022-11-15T00:18:17;4.93;;;4.43;;
11386;SDS011;5748;53.102;8.456;2022-11-15T00:20:45;4.67;;;4.27;;
11386;SDS011;5748;53.102;8.456;2022-11-15T00:23:12;4.80;;;4.30;;
11386;SDS011;5748;53.102;8.456;2022-11-15T00:25:39;5.00;;;4.50;;
11386;SDS011;5748;53.102;8.456;2022-11-15T00:28:06;4.83;;;4.17;;
11386;SDS011;5748;53.102;8.456;2022-11-15T00:30:33;4.33;;;3.93;;
11386;SDS011;5748;53.102;8.456;2022-11-15T00:33:03;4.87;;;4.37;;
11386;SDS011;5748;53.102;8.456;2022-11-15T00:35:31;4.90;;;4.40;;
11386;SDS011;5748;53.102;8.456;2022-11-15T00:37:59;4.97;;;4.37;;
11386;SDS011;5748;53.102;8.456;2022-11-15T00:40:27;4.93;;;4.43;;
11386;SDS011;5748;53.102;8.456;2022-11-15T00:42:54;4.40;;;4.00;;
11386;SDS011;5748;53.102;8.456;2022-11-15T00:45:22;4.87;;;4.40;;
11386;SDS011;5748;53.102;8.456;2022-11-15T00:47:49;4.80;;;4.30;;
11386;SDS011;5748;53.102;8.456;2022-11-15T00:50:18;4.53;;;4.13;;
11386;SDS011;5748;53.102;8.456;2022-11-15T00:52:45;4.70;;;4.30;;
11386;SDS011;5748;53.102;8.456;2022-11-15T00:55:13;4.80;;;4.30;;
11386;SDS011;5748;53.102;8.456;2022-11-15T00:57:40;4.50;;;4.10;;
11386;SDS011;5748;53.102;8.456;2022-11-15T01:00:08;4.50;;;4.10;;
11386;SDS011;5748;53.102;8.456;2022-11-15T01:02:36;4.93;;;4.37;;
11386;SDS011;5748;53.102;8.456;2022-11-15T01:05:03;4.77;;;4.30;;
11386;SDS011;5748;53.102;8.456;2022-11-15T01:07:33;4.60;;;4.17;;
11386;SDS011;5748;53.102;8.456;2022-11-15T01:09:59;4.50;;;4.10;;
11386;SDS011;5748;53.102;8.456;2022-11-15T01:12:27;4.33;;;3.93;;
11386;SDS011;5748;53.102;8.456;2022-11-15T01:14:54;4.43;;;4.03;;
11386;SDS011;5748;53.102;8.456;2022-11-15T01:17:21;4.73;;;4.23;;
11386;SDS011;5748;53.102;8.456;2022-11-15T01:19:48;4.70;;;4.20;;
11386;SDS011;5748;53.102;8.456;2022-11-15T01:22:15;4.47;;;4.07;;
11386;SDS011;5748;53.102;8.456;2022-11-15T01:24:44;4.40;;;3.93;;
11386;SDS011;5748;53.102;8.456;2022-11-15T01:27:11;4.43;;;4.03;;
11386;SDS011;5748;53.102;8.456;2022-11-15T01:29:38;4.20;;;3.80;;
11386;SDS011;5748;53.102;8.456;2022-11-15T01:32:05;4.47;;;3.90;;
11386;SDS011;5748;53.102;8.456;2022-11-15T01:34:32;4.90;;;4.40;;
11386;SDS011;5748;53.102;8.456;2022-11-15T01:36:59;4.27;;;3.87;;
11386;SDS011;5748;53.102;8.456;2022-11-15T01:39:26;4.03;;;3.63;;
11386;SDS011;5748;53.102;8.456;2022-11-15T01:41:56;4.50;;;4.10;;
11386;SDS011;5748;53.102;8.456;2022-11-15T01:44:40;4.30;;;3.90;;
11386;SDS011;5748;53.102;8.456;2022-11-15T01:47:11;4.03;;;3.63;;
11386;SDS011;5748;53.102;8.456;2022-11-15T01:49:45;4.20;;;3.80;;
11386;SDS011;5748;53.102;8.456;2022-11-15T01:52:20;4.30;;;3.90;;
11386;SDS011;5748;53.102;8.456;2022-11-15T01:54:51;4.43;;;4.03;;
11386;SDS011;5748;53.102;8.456;2022-11-15T01:57:25;4.67;;;4.10;;
11386;SDS011;5748;53.102;8.456;2022-11-15T01:59:52;4.43;;;4.03;;
11386;SDS011;5748;53.102;8.456;2022-11-15T02:02:20;4.70;;;4.00;;
11386;SDS011;5748;53.102;8.456;2022-11-15T02:04:47;4.50;;;4.10;;
11386;SDS011;5748;53.102;8.456;2022-11-15T02:07:15;4.20;;;3.80;;
11386;SDS011;5748;53.102;8.456;2022-11-15T02:09:44;4.27;;;3.87;;
11386;SDS011;5748;53.102;8.456;2022-11-15T02:12:18;4.27;;;3.87;;
11386;SDS011;5748;53.102;8.456;2022-11-15T02:14:49;4.07;;;3.67;;
11386;SDS011;5748;53.102;8.456;2022-11-15T02:17:32;3.97;;;3.57;;
11386;SDS011;5748;53.102;8.456;2022-11-15T02:20:42;5.47;;;4.00;;
11386;SDS011;5748;53.102;8.456;2022-11-15T02:29:59;4.20;;;3.80;;
11386;SDS011;5748;53.102;8.456;2022-11-15T02:32:48;4.20;;;3.80;;
11386;SDS011;5748;53.102;8.456;2022-11-15T02:35:23;4.60;;;4.10;;
11386;SDS011;5748;53.102;8.456;2022-11-15T02:38:04;4.03;;;3.63;;
11386;SDS011;5748;53.102;8.456;2022-11-15T02:40:38;4.87;;;4.37;;
11386;SDS011;5748;53.102;8.456;2022-11-15T02:43:15;4.20;;;3.77;;
11386;SDS011;5748;53.102;8.456;2022-11-15T02:46:12;4.03;;;3.67;;
11386;SDS011;5748;53.102;8.456;2022-11-15T02:48:49;4.87;;;3.90;;
11386;SDS011;5748;53.102;8.456;2022-11-15T02:51:17;4.43;;;3.87;;
11386;SDS011;5748;53.102;8.456;2022-11-15T02:53:45;4.30;;;3.90;;
11386;SDS011;5748;53.102;8.456;2022-11-15T02:56:14;4.33;;;3.93;;
11386;SDS011;5748;53.102;8.456;2022-11-15T02:58:52;4.23;;;3.83;;
11386;SDS011;5748;53.102;8.456;2022-11-15T03:01:41;4.37;;;3.97;;
11386;SDS011;5748;53.102;8.456;2022-11-15T03:04:26;4.40;;;4.00;;
11386;SDS011;5748;53.102;8.456;2022-11-15T03:07:04;4.53;;;4.13;;
11386;SDS011;5748;53.102;8.456;2022-11-15T03:09:38;4.43;;;3.63;;
11386;SDS011;5748;53.102;8.456;2022-11-15T03:12:10;4.20;;;3.73;;
11386;SDS011;5748;53.102;8.456;2022-11-15T03:14:46;4.20;;;3.80;;
11386;SDS011;5748;53.102;8.456;2022-11-15T03:17:23;4.70;;;4.20;;
11386;SDS011;5748;53.102;8.456;2022-11-15T03:19:54;4.07;;;3.67;;
11386;SDS011;5748;53.102;8.456;2022-11-15T03:22:24;4.50;;;4.10;;
11386;SDS011;5748;53.102;8.456;2022-11-15T03:24:56;5.43;;;4.10;;
11386;SDS011;5748;53.102;8.456;2022-11-15T03:30:18;3.83;;;3.53;;
11386;SDS011;5748;53.102;8.456;2022-11-15T03:32:48;5.33;;;3.90;;
11386;SDS011;5748;53.102;8.456;2022-11-15T03:35:20;4.03;;;3.63;;
11386;SDS011;5748;53.102;8.456;2022-11-15T03:37:50;4.17;;;3.77;;
11386;SDS011;5748;53.102;8.456;2022-11-15T03:40:24;4.10;;;3.70;;
11386;SDS011;5748;53.102;8.456;2022-11-15T03:45:31;4.37;;;3.97;;
11386;SDS011;5748;53.102;8.456;2022-11-15T03:48:07;4.10;;;3.70;;
11386;SDS011;5748;53.102;8.456;2022-11-15T03:50:40;4.13;;;3.73;;
11386;SDS011;5748;53.102;8.456;2022-11-15T03:53:09;4.20;;;3.70;;
11386;SDS011;5748;53.102;8.456;2022-11-15T03:55:37;3.87;;;3.47;;
11386;SDS011;5748;53.102;8.456;2022-11-15T03:58:04;4.37;;;3.97;;
11386;SDS011;5748;53.102;8.456;2022-11-15T04:00:31;4.33;;;3.90;;
11386;SDS011;5748;53.102;8.456;2022-11-15T04:02:59;4.00;;;3.60;;
11386;SDS011;5748;53.102;8.456;2022-11-15T04:05:28;4.37;;;3.97;;
11386;SDS011;5748;53.102;8.456;2022-11-15T04:07:55;4.57;;;4.00;;
11386;SDS011;5748;53.102;8.456;2022-11-15T04:10:22;3.93;;;3.53;;
11386;SDS011;5748;53.102;8.456;2022-11-15T04:12:49;4.07;;;3.67;;
11386;SDS011;5748;53.102;8.456;2022-11-15T04:15:17;4.00;;;3.53;;
11386;SDS011;5748;53.102;8.456;2022-11-15T04:17:47;4.30;;;3.90;;
11386;SDS011;5748;53.102;8.456;2022-11-15T04:20:16;4.40;;;4.00;;
11386;SDS011;5748;53.102;8.456;2022-11-15T04:23:06;4.10;;;3.70;;
11386;SDS011;5748;53.102;8.456;2022-11-15T04:25:54;4.30;;;3.90;;
11386;SDS011;5748;53.102;8.456;2022-11-15T04:28:24;4.87;;;4.20;;
11386;SDS011;5748;53.102;8.456;2022-11-15T04:30:51;4.23;;;3.83;;
11386;SDS011;5748;53.102;8.456;2022-11-15T04:33:19;4.30;;;3.63;;
11386;SDS011;5748;53.102;8.456;2022-11-15T04:38:37;4.20;;;3.80;;
11386;SDS011;5748;53.102;8.456;2022-11-15T04:41:05;4.10;;;3.70;;
11386;SDS011;5748;53.102;8.456;2022-11-15T04:43:32;3.93;;;3.53;;
11386;SDS011;5748;53.102;8.456;2022-11-15T04:45:59;4.17;;;3.63;;
11386;SDS011;5748;53.102;8.456;2022-11-15T04:48:26;4.23;;;3.80;;
11386;SDS011;5748;53.102;8.456;2022-11-15T04:50:59;4.13;;;3.73;;
11386;SDS011;5748;53.102;8.456;2022-11-15T04:53:27;4.30;;;3.80;;
11386;SDS011;5748;53.102;8.456;2022-11-15T04:55:55;4.10;;;3.70;;
11386;SDS011;5748;53.102;8.456;2022-11-15T04:58:22;4.03;;;3.63;;
11386;SDS011;5748;53.102;8.456;2022-11-15T05:00:49;4.10;;;3.70;;
11386;SDS011;5748;53.102;8.456;2022-11-15T05:03:16;3.80;;;3.50;;
11386;SDS011;5748;53.102;8.456;2022-11-15T05:06:01;3.90;;;3.50;;
11386;SDS011;5748;53.102;8.456;2022-11-15T05:08:29;3.63;;;3.33;;
11386;SDS011;5748;53.102;8.456;2022-11-15T05:10:58;3.90;;;3.50;;
11386;SDS011;5748;53.102;8.456;2022-11-15T05:13:34;4.93;;;3.87;;
11386;SDS011;5748;53.102;8.456;2022-11-15T05:16:01;4.40;;;3.43;;
11386;SDS011;5748;53.102;8.456;2022-11-15T05:18:28;4.37;;;3.13;;
11386;SDS011;5748;53.102;8.456;2022-11-15T05:20:55;4.80;;;3.30;;
11386;SDS011;5748;53.102;8.456;2022-11-15T05:23:22;3.70;;;3.40;;
11386;SDS011;5748;53.102;8.456;2022-11-15T05:25:49;3.20;;;2.90;;
11386;SDS011;5748;53.102;8.456;2022-11-15T05:28:18;3.67;;;3.30;;
11386;SDS011;5748;53.102;8.456;2022-11-15T05:30:45;3.47;;;3.17;;
11386;SDS011;5748;53.102;8.456;2022-11-15T05:33:12;4.13;;;3.30;;
11386;SDS011;5748;53.102;8.456;2022-11-15T05:35:50;3.23;;;2.90;;
11386;SDS011;5748;53.102;8.456;2022-11-15T05:38:26;3.30;;;3.00;;
11386;SDS011;5748;53.102;8.456;2022-11-15T05:40:54;3.13;;;2.83;;
11386;SDS011;5748;53.102;8.456;2022-11-15T05:43:34;3.70;;;2.90;;
11386;SDS011;5748;53.102;8.456;2022-11-15T05:46:10;3.07;;;2.77;;
11386;SDS011;5748;53.102;8.456;2022-11-15T05:48:38;3.53;;;3.00;;
11386;SDS011;5748;53.102;8.456;2022-11-15T05:51:18;3.10;;;2.80;;
11386;SDS011;5748;53.102;8.456;2022-11-15T05:54:01;3.20;;;2.90;;
11386;SDS011;5748;53.102;8.456;2022-11-15T05:56:29;3.40;;;3.03;;
11386;SDS011;5748;53.102;8.456;2022-11-15T05:58:57;3.03;;;2.73;;
11386;SDS011;5748;53.102;8.456;2022-11-15T06:01:25;3.03;;;2.70;;
11386;SDS011;5748;53.102;8.456;2022-11-15T06:03:55;3.00;;;2.70;;
11386;SDS011;5748;53.102;8.456;2022-11-15T06:06:22;3.37;;;2.93;;
11386;SDS011;5748;53.102;8.456;2022-11-15T06:08:49;3.10;;;2.80;;
11386;SDS011;5748;53.102;8.456;2022-11-15T06:11:28;2.83;;;2.63;;
11386;SDS011;5748;53.102;8.456;2022-11-15T06:13:55;2.87;;;2.57;;
11386;SDS011;5748;53.102;8.456;2022-11-15T06:16:24;2.70;;;2.50;;
11386;SDS011;5748;53.102;8.456;2022-11-15T06:18:51;2.97;;;2.67;;
11386;SDS011;5748;53.102;8.456;2022-11-15T06:21:18;3.80;;;3.50;;
11386;SDS011;5748;53.102;8.456;2022-11-15T06:23:45;3.40;;;3.10;;
11386;SDS011;5748;53.102;8.456;2022-11-15T06:26:12;3.27;;;2.97;;
11386;SDS011;5748;53.102;8.456;2022-11-15T06:28:39;2.90;;;2.60;;
11386;SDS011;5748;53.102;8.456;2022-11-15T06:31:08;3.13;;;2.83;;
11386;SDS011;5748;53.102;8.456;2022-11-15T06:33:42;2.87;;;2.50;;
11386;SDS011;5748;53.102;8.456;2022-11-15T06:36:10;3.03;;;2.73;;
11386;SDS011;5748;53.102;8.456;2022-11-15T06:38:40;3.10;;;2.80;;
11386;SDS011;5748;53.102;8.456;2022-11-15T06:41:07;2.67;;;2.47;;
11386;SDS011;5748;53.102;8.456;2022-11-15T06:43:36;3.17;;;2.90;;
11386;SDS011;5748;53.102;8.456;2022-11-15T06:46:04;2.80;;;2.50;;
11386;SDS011;5748;53.102;8.456;2022-11-15T06:48:34;3.30;;;2.70;;
11386;SDS011;5748;53.102;8.456;2022-11-15T06:51:02;2.50;;;2.30;;
11386;SDS011;5748;53.102;8.456;2022-11-15T06:53:31;3.47;;;2.90;;
11386;SDS011;5748;53.102;8.456;2022-11-15T06:55:58;2.87;;;2.67;;
11386;SDS011;5748;53.102;8.456;2022-11-15T06:58:26;2.70;;;2.50;;
11386;SDS011;5748;53.102;8.456;2022-11-15T07:00:57;3.80;;;2.80;;
11386;SDS011;5748;53.102;8.456;2022-11-15T07:03:28;2.70;;;2.50;;
11386;SDS011;5748;53.102;8.456;2022-11-15T07:05:57;3.17;;;2.87;;
11386;SDS011;5748;53.102;8.456;2022-11-15T07:08:26;2.63;;;2.43;;
11386;SDS011;5748;53.102;8.456;2022-11-15T07:10:54;2.70;;;2.50;;
11386;SDS011;5748;53.102;8.456;2022-11-15T07:13:24;3.37;;;2.67;;
11386;SDS011;5748;53.102;8.456;2022-11-15T07:15:51;2.70;;;2.50;;
11386;SDS011;5748;53.102;8.456;2022-11-15T07:18:19;2.50;;;2.30;;
11386;SDS011;5748;53.102;8.456;2022-11-15T07:20:46;2.70;;;2.50;;
11386;SDS011;5748;53.102;8.456;2022-11-15T07:23:15;2.80;;;2.40;;
11386;SDS011;5748;53.102;8.456;2022-11-15T07:25:49;2.83;;;2.40;;
11386;SDS011;5748;53.102;8.456;2022-11-15T07:28:16;2.67;;;2.47;;
11386;SDS011;5748;53.102;8.456;2022-11-15T07:30:43;2.70;;;2.40;;
11386;SDS011;5748;53.102;8.456;2022-11-15T07:33:10;3.10;;;2.80;;
11386;SDS011;5748;53.102;8.456;2022-11-15T07:35:37;3.00;;;2.70;;
11386;SDS011;5748;53.102;8.456;2022-11-15T07:38:04;2.97;;;2.70;;
11386;SDS011;5748;53.102;8.456;2022-11-15T07:40:32;3.30;;;3.00;;
11386;SDS011;5748;53.102;8.456;2022-11-15T07:42:59;2.80;;;2.50;;
11386;SDS011;5748;53.102;8.456;2022-11-15T07:45:27;2.93;;;2.63;;
11386;SDS011;5748;53.102;8.456;2022-11-15T07:47:55;2.90;;;2.60;;
11386;SDS011;5748;53.102;8.456;2022-11-15T07:53:11;3.00;;;2.73;;
11386;SDS011;5748;53.102;8.456;2022-11-15T07:55:40;2.67;;;2.47;;
11386;SDS011;5748;53.102;8.456;2022-11-15T07:58:09;3.00;;;2.80;;
11386;SDS011;5748;53.102;8.456;2022-11-15T08:00:37;2.60;;;2.40;;
11386;SDS011;5748;53.102;8.456;2022-11-15T08:03:05;2.57;;;2.37;;
11386;SDS011;5748;53.102;8.456;2022-11-15T08:05:35;2.83;;;2.53;;
11386;SDS011;5748;53.102;8.456;2022-11-15T08:08:03;3.00;;;2.73;;
11386;SDS011;5748;53.102;8.456;2022-11-15T08:10:31;3.13;;;2.50;;
11386;SDS011;5748;53.102;8.456;2022-11-15T08:13:00;2.77;;;2.47;;
11386;SDS011;5748;53.102;8.456;2022-11-15T08:15:29;2.63;;;2.43;;
11386;SDS011;5748;53.102;8.456;2022-11-15T08:18:00;2.83;;;2.57;;
11386;SDS011;5748;53.102;8.456;2022-11-15T08:20:29;3.33;;;2.80;;
11386;SDS011;5748;53.102;8.456;2022-11-15T08:22:57;2.70;;;2.50;;
11386;SDS011;5748;53.102;8.456;2022-11-15T08:25:25;3.27;;;2.97;;
11386;SDS011;5748;53.102;8.456;2022-11-15T08:27:53;2.70;;;2.50;;
11386;SDS011;5748;53.102;8.456;2022-11-15T08:30:23;3.10;;;2.80;;
11386;SDS011;5748;53.102;8.456;2022-11-15T08:32:51;2.70;;;2.50;;
11386;SDS011;5748;53.102;8.456;2022-11-15T08:35:20;2.93;;;2.73;;
11386;SDS011;5748;53.102;8.456;2022-11-15T08:37:47;2.83;;;2.57;;
11386;SDS011;5748;53.102;8.456;2022-11-15T08:40:14;3.20;;;2.90;;
11386;SDS011;5748;53.102;8.456;2022-11-15T08:42:44;2.90;;;2.70;;
11386;SDS011;5748;53.102;8.456;2022-11-15T08:45:12;2.90;;;2.53;;
11386;SDS011;5748;53.102;8.456;2022-11-15T08:47:41;2.80;;;2.60;;
11386;SDS011;5748;53.102;8.456;2022-11-15T08:50:08;3.17;;;2.87;;
11386;SDS011;5748;53.102;8.456;2022-11-15T08:52:35;3.07;;;2.77;;
11386;SDS011;5748;53.102;8.456;2022-11-15T08:55:03;3.03;;;2.73;;
11386;SDS011;5748;53.102;8.456;2022-11-15T08:57:31;3.40;;;3.10;;
11386;SDS011;5748;53.102;8.456;2022-11-15T08:59:58;3.23;;;2.93;;
11386;SDS011;5748;53.102;8.456;2022-11-15T09:02:25;3.20;;;2.90;;
11386;SDS011;5748;53.102;8.456;2022-11-15T09:04:53;3.07;;;2.77;;
11386;SDS011;5748;53.102;8.456;2022-11-15T09:07:21;3.40;;;3.10;;
11386;SDS011;5748;53.102;8.456;2022-11-15T09:09:48;3.23;;;2.90;;
11386;SDS011;5748;53.102;8.456;2022-11-15T09:12:15;2.80;;;2.60;;
11386;SDS011;5748;53.102;8.456;2022-11-15T09:14:42;3.30;;;2.83;;
11386;SDS011;5748;53.102;8.456;2022-11-15T09:17:09;3.67;;;2.87;;
11386;SDS011;5748;53.102;8.456;2022-11-15T09:19:36;2.80;;;2.60;;
11386;SDS011;5748;53.102;8.456;2022-11-15T09:22:06;3.07;;;2.87;;
11386;SDS011;5748;53.102;8.456;2022-11-15T09:24:34;4.60;;;2.93;;
11386;SDS011;5748;53.102;8.456;2022-11-15T09:27:01;2.83;;;2.63;;
11386;SDS011;5748;53.102;8.456;2022-11-15T09:29:29;2.80;;;2.60;;
11386;SDS011;5748;53.102;8.456;2022-11-15T09:31:56;3.37;;;3.07;;
11386;SDS011;5748;53.102;8.456;2022-11-15T09:34:23;3.20;;;2.90;;
11386;SDS011;5748;53.102;8.456;2022-11-15T09:36:50;3.30;;;3.00;;
11386;SDS011;5748;53.102;8.456;2022-11-15T09:39:18;3.10;;;2.80;;
11386;SDS011;5748;53.102;8.456;2022-11-15T09:41:50;3.90;;;2.90;;
11386;SDS011;5748;53.102;8.456;2022-11-15T09:44:52;2.83;;;2.60;;
11386;SDS011;5748;53.102;8.456;2022-11-15T09:50:46;2.77;;;2.57;;
11386;SDS011;5748;53.102;8.456;2022-11-15T09:53:17;3.10;;;2.80;;
11386;SDS011;5748;53.102;8.456;2022-11-15T09:55:56;2.70;;;2.50;;
11386;SDS011;5748;53.102;8.456;2022-11-15T09:58:30;2.83;;;2.63;;
11386;SDS011;5748;53.102;8.456;2022-11-15T10:01:04;3.40;;;2.80;;
11386;SDS011;5748;53.102;8.456;2022-11-15T10:03:38;2.90;;;2.67;;
11386;SDS011;5748;53.102;8.456;2022-11-15T10:06:08;2.40;;;2.20;;
11386;SDS011;5748;53.102;8.456;2022-11-15T10:08:50;2.87;;;2.67;;
11386;SDS011;5748;53.102;8.456;2022-11-15T10:11:24;3.03;;;2.73;;
11386;SDS011;5748;53.102;8.456;2022-11-15T10:13:55;3.23;;;2.93;;
11386;SDS011;5748;53.102;8.456;2022-11-15T10:19:23;2.33;;;2.13;;
11386;SDS011;5748;53.102;8.456;2022-11-15T10:21:59;2.33;;;2.13;;
11386;SDS011;5748;53.102;8.456;2022-11-15T10:24:50;2.80;;;2.57;;
11386;SDS011;5748;53.102;8.456;2022-11-15T10:27:32;2.57;;;2.37;;
11386;SDS011;5748;53.102;8.456;2022-11-15T10:29:59;2.47;;;2.27;;
11386;SDS011;5748;53.102;8.456;2022-11-15T10:32:27;2.67;;;2.47;;
11386;SDS011;5748;53.102;8.456;2022-11-15T10:34:54;3.10;;;2.80;;
11386;SDS011;5748;53.102;8.456;2022-11-15T10:37:27;2.73;;;2.53;;
11386;SDS011;5748;53.102;8.456;2022-11-15T10:40:05;3.00;;;2.70;;
11386;SDS011;5748;53.102;8.456;2022-11-15T10:42:43;2.57;;;2.37;;
11386;SDS011;5748;53.102;8.456;2022-11-15T10:45:22;2.40;;;2.20;;
11386;SDS011;5748;53.102;8.456;2022-11-15T10:50:49;2.53;;;2.30;;
11386;SDS011;5748;53.102;8.456;2022-11-15T10:53:20;2.23;;;2.03;;
11386;SDS011;5748;53.102;8.456;2022-11-15T10:55:54;1.90;;;1.80;;
11386;SDS011;5748;53.102;8.456;2022-11-15T10:58:31;2.23;;;2.03;;
11386;SDS011;5748;53.102;8.456;2022-11-15T11:01:10;2.27;;;2.07;;
11386;SDS011;5748;53.102;8.456;2022-11-15T11:03:40;2.20;;;2.00;;
11386;SDS011;5748;53.102;8.456;2022-11-15T11:06:10;2.00;;;1.90;;
11386;SDS011;5748;53.102;8.456;2022-11-15T11:08:39;2.17;;;1.97;;
11386;SDS011;5748;53.102;8.456;2022-11-15T11:11:20;1.97;;;1.87;;
11386;SDS011;5748;53.102;8.456;2022-11-15T11:13:48;1.77;;;1.67;;
11386;SDS011;5748;53.102;8.456;2022-11-15T11:16:20;2.00;;;1.87;;
11386;SDS011;5748;53.102;8.456;2022-11-15T11:19:14;2.20;;;2.00;;
11386;SDS011;5748;53.102;8.456;2022-11-15T11:22:03;2.33;;;2.10;;
11386;SDS011;5748;53.102;8.456;2022-11-15T11:24:41;2.03;;;1.90;;
11386;SDS011;5748;53.102;8.456;2022-11-15T11:27:13;1.60;;;1.50;;
11386;SDS011;5748;53.102;8.456;2022-11-15T11:29:56;2.50;;;2.07;;
11386;SDS011;5748;53.102;8.456;2022-11-15T11:35:38;2.17;;;1.97;;
11386;SDS011;5748;53.102;8.456;2022-11-15T11:41:10;2.00;;;1.87;;
11386;SDS011;5748;53.102;8.456;2022-11-15T11:43:58;1.90;;;1.80;;
11386;SDS011;5748;53.102;8.456;2022-11-15T11:46:42;1.90;;;1.80;;
11386;SDS011;5748;53.102;8.456;2022-11-15T11:49:16;1.93;;;1.80;;
11386;SDS011;5748;53.102;8.456;2022-11-15T11:51:50;2.07;;;1.80;;
11386;SDS011;5748;53.102;8.456;2022-11-15T11:54:24;1.70;;;1.60;;
11386;SDS011;5748;53.102;8.456;2022-11-15T11:56:58;1.77;;;1.67;;
11386;SDS011;5748;53.102;8.456;2022-11-15T11:59:31;1.80;;;1.70;;
11386;SDS011;5748;53.102;8.456;2022-11-15T12:02:11;1.83;;;1.73;;
11386;SDS011;5748;53.102;8.456;2022-11-15T12:04:44;2.00;;;1.80;;
11386;SDS011;5748;53.102;8.456;2022-11-15T12:07:17;1.60;;;1.50;;
11386;SDS011;5748;53.102;8.456;2022-11-15T12:09:51;2.00;;;1.50;;
11386;SDS011;5748;53.102;8.456;2022-11-15T12:12:27;1.70;;;1.60;;
11386;SDS011;5748;53.102;8.456;2022-11-15T12:17:43;1.40;;;1.30;;
11386;SDS011;5748;53.102;8.456;2022-11-15T12:20:16;1.60;;;1.50;;
11386;SDS011;5748;53.102;8.456;2022-11-15T12:22:47;1.77;;;1.57;;
11386;SDS011;5748;53.102;8.456;2022-11-15T12:25:21;1.97;;;1.77;;
11386;SDS011;5748;53.102;8.456;2022-11-15T12:27:55;3.10;;;1.77;;
11386;SDS011;5748;53.102;8.456;2022-11-15T12:30:43;1.60;;;1.50;;
11386;SDS011;5748;53.102;8.456;2022-11-15T12:33:32;1.50;;;1.40;;
11386;SDS011;5748;53.102;8.456;2022-11-15T12:36:05;1.47;;;1.37;;
11386;SDS011;5748;53.102;8.456;2022-11-15T12:38:54;1.30;;;1.20;;
11386;SDS011;5748;53.102;8.456;2022-11-15T12:41:25;1.40;;;1.30;;
11386;SDS011;5748;53.102;8.456;2022-11-15T12:43:54;1.20;;;1.10;;
11386;SDS011;5748;53.102;8.456;2022-11-15T12:46:24;1.10;;;1.10;;
11386;SDS011;5748;53.102;8.456;2022-11-15T12:52:20;1.20;;;1.10;;
11386;SDS011;5748;53.102;8.456;2022-11-15T12:55:00;1.30;;;1.20;;
11386;SDS011;5748;53.102;8.456;2022-11-15T12:57:38;2.47;;;1.00;;
11386;SDS011;5748;53.102;8.456;2022-11-15T13:05:59;1.20;;;1.10;;
11386;SDS011;5748;53.102;8.456;2022-11-15T13:17:31;0.80;;;0.80;;
11386;SDS011;5748;53.102;8.456;2022-11-15T13:20:08;1.30;;;1.20;;
11386;SDS011;5748;53.102;8.456;2022-11-15T13:22:51;1.50;;;1.23;;
11386;SDS011;5748;53.102;8.456;2022-11-15T13:28:21;0.80;;;0.80;;
11386;SDS011;5748;53.102;8.456;2022-11-15T13:30:58;0.90;;;0.90;;
11386;SDS011;5748;53.102;8.456;2022-11-15T13:33:29;0.93;;;0.80;;
11386;SDS011;5748;53.102;8.456;2022-11-15T13:36:02;0.90;;;0.90;;
11386;SDS011;5748;53.102;8.456;2022-11-15T13:38:35;1.43;;;0.83;;
11386;SDS011;5748;53.102;8.456;2022-11-15T13:41:11;0.87;;;0.87;;
11386;SDS011;5748;53.102;8.456;2022-11-15T13:43:46;0.80;;;0.80;;
11386;SDS011;5748;53.102;8.456;2022-11-15T13:46:15;0.70;;;0.70;;
11386;SDS011;5748;53.102;8.456;2022-11-15T13:48:44;0.80;;;0.80;;
11386;SDS011;5748;53.102;8.456;2022-11-15T13:54:08;0.90;;;0.90;;
11386;SDS011;5748;53.102;8.456;2022-11-15T13:56:44;1.00;;;0.90;;
11386;SDS011;5748;53.102;8.456;2022-11-15T13:59:15;1.30;;;1.20;;
11386;SDS011;5748;53.102;8.456;2022-11-15T14:01:49;1.30;;;1.20;;
11386;SDS011;5748;53.102;8.456;2022-11-15T14:04:18;1.30;;;1.20;;
11386;SDS011;5748;53.102;8.456;2022-11-15T14:06:52;1.20;;;1.10;;
11386;SDS011;5748;53.102;8.456;2022-11-15T14:09:30;1.80;;;1.20;;
11386;SDS011;5748;53.102;8.456;2022-11-15T14:12:20;1.10;;;1.00;;
11386;SDS011;5748;53.102;8.456;2022-11-15T14:14:56;1.00;;;1.00;;
11386;SDS011;5748;53.102;8.456;2022-11-15T14:17:35;1.10;;;1.00;;
11386;SDS011;5748;53.102;8.456;2022-11-15T14:23:05;0.70;;;0.70;;
11386;SDS011;5748;53.102;8.456;2022-11-15T14:25:53;0.90;;;0.83;;
11386;SDS011;5748;53.102;8.456;2022-11-15T14:28:29;0.70;;;0.70;;
11386;SDS011;5748;53.102;8.456;2022-11-15T14:31:04;1.00;;;0.90;;
11386;SDS011;5748;53.102;8.456;2022-11-15T14:33:38;1.00;;;0.90;;
11386;SDS011;5748;53.102;8.456;2022-11-15T14:36:16;0.70;;;0.70;;
11386;SDS011;5748;53.102;8.456;2022-11-15T14:38:46;0.70;;;0.70;;
11386;SDS011;5748;53.102;8.456;2022-11-15T14:41:19;2.20;;;0.83;;
11386;SDS011;5748;53.102;8.456;2022-11-15T14:43:50;0.80;;;0.80;;
11386;SDS011;5748;53.102;8.456;2022-11-15T14:46:18;1.17;;;1.07;;
11386;SDS011;5748;53.102;8.456;2022-11-15T14:48:45;0.83;;;0.83;;
11386;SDS011;5748;53.102;8.456;2022-11-15T14:51:12;0.77;;;0.77;;
11386;SDS011;5748;53.102;8.456;2022-11-15T14:53:49;1.00;;;1.00;;
11386;SDS011;5748;53.102;8.456;2022-11-15T14:56:16;1.30;;;1.20;;
11386;SDS011;5748;53.102;8.456;2022-11-15T14:58:44;1.23;;;1.13;;
11386;SDS011;5748;53.102;8.456;2022-11-15T15:07:00;1.07;;;0.97;;
11386;SDS011;5748;53.102;8.456;2022-11-15T15:09:27;1.17;;;1.07;;
11386;SDS011;5748;53.102;8.456;2022-11-15T15:11:54;1.20;;;1.10;;
11386;SDS011;5748;53.102;8.456;2022-11-15T15:14:24;0.87;;;0.87;;
11386;SDS011;5748;53.102;8.456;2022-11-15T15:16:51;0.80;;;0.80;;
11386;SDS011;5748;53.102;8.456;2022-11-15T15:19:21;0.90;;;0.80;;
11386;SDS011;5748;53.102;8.456;2022-11-15T15:21:48;0.80;;;0.80;;
11386;SDS011;5748;53.102;8.456;2022-11-15T15:24:15;0.87;;;0.87;;
11386;SDS011;5748;53.102;8.456;2022-11-15T15:26:42;1.90;;;1.20;;
11386;SDS011;5748;53.102;8.456;2022-11-15T15:29:16;0.80;;;0.80;;
11386;SDS011;5748;53.102;8.456;2022-11-15T15:31:44;1.30;;;1.20;;
11386;SDS011;5748;53.102;8.456;2022-11-15T15:34:15;2.10;;;1.00;;
11386;SDS011;5748;53.102;8.456;2022-11-15T15:36:45;2.50;;;0.90;;
11386;SDS011;5748;53.102;8.456;2022-11-15T15:42:22;1.20;;;1.10;;
11386;SDS011;5748;53.102;8.456;2022-11-15T15:47:35;1.90;;;1.37;;
11386;SDS011;5748;53.102;8.456;2022-11-15T15:50:04;2.00;;;1.60;;
11386;SDS011;5748;53.102;8.456;2022-11-15T15:52:42;1.70;;;1.60;;
11386;SDS011;5748;53.102;8.456;2022-11-15T15:55:19;2.00;;;1.57;;
11386;SDS011;5748;53.102;8.456;2022-11-15T15:57:52;1.87;;;1.50;;
11386;SDS011;5748;53.102;8.456;2022-11-15T16:00:29;2.60;;;2.40;;
11386;SDS011;5748;53.102;8.456;2022-11-15T16:03:01;2.53;;;2.30;;
11386;SDS011;5748;53.102;8.456;2022-11-15T16:05:39;2.03;;;1.87;;
11386;SDS011;5748;53.102;8.456;2022-11-15T16:08:16;2.07;;;1.83;;
11386;SDS011;5748;53.102;8.456;2022-11-15T16:10:45;2.07;;;1.87;;
11386;SDS011;5748;53.102;8.456;2022-11-15T16:13:13;2.10;;;1.90;;
11386;SDS011;5748;53.102;8.456;2022-11-15T16:15:52;1.83;;;1.70;;
11386;SDS011;5748;53.102;8.456;2022-11-15T16:18:22;1.93;;;1.70;;
11386;SDS011;5748;53.102;8.456;2022-11-15T16:20:52;2.03;;;1.83;;
11386;SDS011;5748;53.102;8.456;2022-11-15T16:26:20;2.17;;;1.83;;
11386;SDS011;5748;53.102;8.456;2022-11-15T16:28:50;2.80;;;2.37;;
11386;SDS011;5748;53.102;8.456;2022-11-15T16:31:17;3.47;;;2.60;;
11386;SDS011;5748;53.102;8.456;2022-11-15T16:33:49;3.50;;;2.80;;
11386;SDS011;5748;53.102;8.456;2022-11-15T16:36:22;4.33;;;3.33;;
11386;SDS011;5748;53.102;8.456;2022-11-15T16:38:52;3.57;;;2.93;;
11386;SDS011;5748;53.102;8.456;2022-11-15T16:41:21;4.30;;;3.50;;
11386;SDS011;5748;53.102;8.456;2022-11-15T16:43:48;3.47;;;2.87;;